createdAt,value
2019-05-03T00:00:37.171Z,0.00
2019-05-03T00:01:37.202Z,0.00
2019-05-03T00:02:37.129Z,0.00
2019-05-03T00:03:37.128Z,0.00
2019-05-03T00:04:37.114Z,0.00
2019-05-03T00:05:37.146Z,0.00
2019-05-03T00:06:37.188Z,0.00
2019-05-03T00:07:37.166Z,0.00
2019-05-03T00:08:37.064Z,0.00
2019-05-03T00:09:37.055Z,0.00
2019-05-03T00:10:37.090Z,0.00
2019-05-03T00:11:37.068Z,0.00
2019-05-03T00:12:37.039Z,0.00
2019-05-03T00:13:37.164Z,0.00
2019-05-03T00:14:37.016Z,0.00
2019-05-03T00:15:36.987Z,0.00
2019-05-03T00:16:37.018Z,0.00
2019-05-03T00:17:37.102Z,0.00
2019-05-03T00:18:36.975Z,0.00
2019-05-03T00:19:36.948Z,0.00
2019-05-03T00:20:36.954Z,0.00
2019-05-03T00:21:37.000Z,0.00
2019-05-03T00:22:36.942Z,0.00
2019-05-03T00:23:36.910Z,0.00
2019-05-03T00:24:36.926Z,0.00
2019-05-03T00:25:36.880Z,0.00
2019-05-03T00:26:36.881Z,0.00
2019-05-03T00:27:36.929Z,0.00
2019-05-03T00:28:36.930Z,0.00
2019-05-03T00:29:36.870Z,0.00
2019-05-03T00:30:36.837Z,0.00
2019-05-03T00:31:36.824Z,0.00
2019-05-03T00:32:36.898Z,0.00
2019-05-03T00:33:36.825Z,0.00
2019-05-03T00:34:36.795Z,0.00
2019-05-03T00:35:36.795Z,0.00
2019-05-03T00:36:36.766Z,0.00
2019-05-03T00:37:36.776Z,0.00
2019-05-03T00:38:36.738Z,0.00
2019-05-03T00:39:36.746Z,0.00
2019-05-03T00:40:36.919Z,0.00
2019-05-03T00:41:36.792Z,0.00
2019-05-03T00:42:36.726Z,0.00
2019-05-03T00:43:36.691Z,0.00
2019-05-03T00:44:36.705Z,0.00
2019-05-03T00:45:36.679Z,0.00
2019-05-03T00:47:37.691Z,0.00
2019-05-03T00:48:36.695Z,0.00
2019-05-03T00:49:36.629Z,0.00
2019-05-03T00:50:36.647Z,0.00
2019-05-03T00:51:36.603Z,0.00
2019-05-03T00:52:36.651Z,0.00
2019-05-03T00:53:36.668Z,0.00
2019-05-03T00:54:36.611Z,0.00
2019-05-03T00:55:36.591Z,0.00
2019-05-03T00:56:36.579Z,0.00
2019-05-03T00:57:36.557Z,0.00
2019-05-03T00:58:36.581Z,0.00
2019-05-03T00:59:36.546Z,0.00
2019-05-03T01:00:36.519Z,0.00
2019-05-03T01:01:36.501Z,0.00
2019-05-03T01:02:36.490Z,0.00
2019-05-03T01:03:36.505Z,0.00
2019-05-03T01:04:36.529Z,0.00
2019-05-03T01:05:36.459Z,0.00
2019-05-03T01:06:36.449Z,0.00
2019-05-03T01:07:36.431Z,0.00
2019-05-03T01:08:36.475Z,0.00
2019-05-03T01:09:36.427Z,0.00
2019-05-03T01:10:36.459Z,0.00
2019-05-03T01:11:36.386Z,0.00
2019-05-03T01:12:36.375Z,0.00
2019-05-03T01:13:36.385Z,0.00
2019-05-03T01:14:36.385Z,0.00
2019-05-03T01:15:36.367Z,0.00
2019-05-03T01:16:36.330Z,0.00
2019-05-03T01:17:36.317Z,0.00
2019-05-03T01:18:36.345Z,0.00
2019-05-03T01:19:36.319Z,0.00
2019-05-03T01:20:36.307Z,0.00
2019-05-03T01:21:36.337Z,0.00
2019-05-03T01:22:36.259Z,0.00
2019-05-03T01:23:36.277Z,0.00
2019-05-03T01:24:36.261Z,0.00
2019-05-03T01:25:36.241Z,0.00
2019-05-03T01:26:36.272Z,0.00
2019-05-03T01:27:36.259Z,0.00
2019-05-03T01:28:36.227Z,0.00
2019-05-03T01:29:36.193Z,0.00
2019-05-03T01:30:36.189Z,0.00
2019-05-03T01:31:36.180Z,0.00
2019-05-03T01:32:36.196Z,0.00
2019-05-03T01:33:36.184Z,0.00
2019-05-03T01:34:36.129Z,0.00
2019-05-03T01:35:36.129Z,0.00
2019-05-03T01:36:36.110Z,0.00
2019-05-03T01:37:36.115Z,0.00
2019-05-03T01:38:36.113Z,0.00
2019-05-03T01:39:36.112Z,0.00
2019-05-03T01:40:36.072Z,0.00
2019-05-03T01:41:36.061Z,0.00
2019-05-03T01:42:36.044Z,0.00
2019-05-03T01:43:36.056Z,0.00
2019-05-03T01:44:36.054Z,0.00
2019-05-03T01:45:36.018Z,0.00
2019-05-03T01:46:36.005Z,0.00
2019-05-03T01:47:36.014Z,0.00
2019-05-03T01:48:35.978Z,0.00
2019-05-03T01:49:36.012Z,0.00
2019-05-03T01:50:35.954Z,0.00
2019-05-03T01:51:35.950Z,0.00
2019-05-03T01:52:35.939Z,0.00
2019-05-03T01:53:35.936Z,0.00
2019-05-03T01:54:35.931Z,0.00
2019-05-03T01:55:43.993Z,0.00
2019-05-03T01:56:36.890Z,0.00
2019-05-03T01:57:35.884Z,0.00
2019-05-03T01:58:35.886Z,0.00
2019-05-03T01:59:35.890Z,0.00
2019-05-03T02:00:35.859Z,0.00
2019-05-03T02:01:35.856Z,0.00
2019-05-03T02:02:35.826Z,0.00
2019-05-03T02:03:35.813Z,0.00
2019-05-03T02:04:35.818Z,0.00
2019-05-03T02:05:35.795Z,0.00
2019-05-03T02:06:35.800Z,0.00
2019-05-03T02:07:35.792Z,0.00
2019-05-03T02:08:35.773Z,0.00
2019-05-03T02:09:35.781Z,0.00
2019-05-03T02:10:35.754Z,0.00
2019-05-03T02:11:35.732Z,0.00
2019-05-03T02:12:35.727Z,0.00
2019-05-03T02:13:35.715Z,0.00
2019-05-03T02:14:35.717Z,0.00
2019-05-03T02:15:35.689Z,0.00
2019-05-03T02:16:35.677Z,0.00
2019-05-03T02:17:35.672Z,0.00
2019-05-03T02:18:35.672Z,0.00
2019-05-03T02:19:35.684Z,0.00
2019-05-03T02:20:35.629Z,0.00
2019-05-03T02:21:35.633Z,0.00
2019-05-03T02:22:35.615Z,0.00
2019-05-03T02:23:35.621Z,0.00
2019-05-03T02:24:35.588Z,0.00
2019-05-03T02:25:35.645Z,0.00
2019-05-03T02:26:35.564Z,0.00
2019-05-03T02:27:35.573Z,0.00
2019-05-03T02:28:35.545Z,0.00
2019-05-03T02:29:35.591Z,0.00
2019-05-03T02:30:35.568Z,0.00
2019-05-03T02:31:35.512Z,0.00
2019-05-03T02:32:35.520Z,0.00
2019-05-03T02:33:35.506Z,0.00
2019-05-03T02:34:35.488Z,0.00
2019-05-03T02:35:35.586Z,0.00
2019-05-03T02:36:35.463Z,0.00
2019-05-03T02:37:35.448Z,0.00
2019-05-03T02:38:35.438Z,0.00
2019-05-03T02:39:35.445Z,0.00
2019-05-03T02:40:35.441Z,0.00
2019-05-03T02:41:35.422Z,0.00
2019-05-03T02:42:35.718Z,0.00
2019-05-03T02:43:36.472Z,0.00
2019-05-03T02:44:35.684Z,0.00
2019-05-03T02:45:35.393Z,0.00
2019-05-03T02:46:36.142Z,0.00
2019-05-03T02:47:35.796Z,0.00
2019-05-03T02:48:36.461Z,0.00
2019-05-03T02:49:35.463Z,0.00
2019-05-03T02:50:36.134Z,0.00
2019-05-03T02:51:36.024Z,0.00
2019-05-03T02:52:36.999Z,0.00
2019-05-03T02:53:36.002Z,0.00
2019-05-03T02:54:35.418Z,0.00
2019-05-03T02:55:36.416Z,0.00
2019-05-03T02:56:35.900Z,0.00
2019-05-03T02:57:35.326Z,0.00
2019-05-03T02:58:35.844Z,0.00
2019-05-03T02:59:35.244Z,0.00
2019-05-03T03:00:36.247Z,0.00
2019-05-03T03:01:35.860Z,0.00
2019-05-03T03:02:36.510Z,0.00
2019-05-03T03:03:36.278Z,0.00
2019-05-03T03:04:35.518Z,0.00
2019-05-03T03:05:35.334Z,0.00
2019-05-03T03:06:36.730Z,0.00
2019-05-03T03:07:37.733Z,0.00
2019-05-03T03:08:36.898Z,0.00
2019-05-03T03:09:36.053Z,0.00
2019-05-03T03:10:35.641Z,0.00
2019-05-03T03:11:35.553Z,0.00
2019-05-03T03:12:35.663Z,0.00
2019-05-03T03:13:36.875Z,0.00
2019-05-03T03:14:36.226Z,0.00
2019-05-03T03:15:36.348Z,0.00
2019-05-03T03:16:36.199Z,0.00
2019-05-03T03:17:36.368Z,0.00
2019-05-03T03:18:36.382Z,0.00
2019-05-03T03:19:35.333Z,0.00
2019-05-03T03:20:35.696Z,0.00
2019-05-03T03:21:36.104Z,0.00
2019-05-03T03:22:36.296Z,0.00
2019-05-03T03:23:35.517Z,0.00
2019-05-03T03:24:36.249Z,0.00
2019-05-03T03:25:36.204Z,0.00
2019-05-03T03:26:41.467Z,0.00
2019-05-03T03:27:36.172Z,0.00
2019-05-03T03:28:35.953Z,0.00
2019-05-03T03:29:35.890Z,0.00
2019-05-03T03:30:37.993Z,5.62
2019-05-03T03:31:37.868Z,5.62
2019-05-03T03:32:38.455Z,5.62
2019-05-03T03:33:39.663Z,5.62
2019-05-03T03:34:38.742Z,5.62
2019-05-03T03:35:38.248Z,5.62
2019-05-03T03:36:50.530Z,5.62
2019-05-03T03:37:35.882Z,5.62
2019-05-03T03:38:35.294Z,5.62
2019-05-03T03:39:36.176Z,5.62
2019-05-03T03:40:35.802Z,5.62
2019-05-03T03:41:35.349Z,11.25
2019-05-03T03:42:35.972Z,11.25
2019-05-03T03:43:35.457Z,11.25
2019-05-03T03:44:36.300Z,11.25
2019-05-03T03:45:35.982Z,11.25
2019-05-03T03:46:35.737Z,11.25
2019-05-03T03:47:35.797Z,16.88
2019-05-03T03:48:35.442Z,16.88
2019-05-03T03:49:35.572Z,16.88
2019-05-03T03:50:35.906Z,16.88
2019-05-03T03:51:35.141Z,16.88
2019-05-03T03:52:36.095Z,16.88
2019-05-03T03:53:35.586Z,22.50
2019-05-03T03:54:35.449Z,22.50
2019-05-03T03:55:35.419Z,22.50
2019-05-03T03:56:40.890Z,22.50
2019-05-03T03:57:35.821Z,28.12
2019-05-03T03:58:35.962Z,28.12
2019-05-03T03:59:36.442Z,33.75
2019-05-03T04:00:36.265Z,33.75
2019-05-03T04:01:35.050Z,33.75
2019-05-03T04:02:35.402Z,33.75
2019-05-03T04:03:36.185Z,33.75
2019-05-03T04:04:35.755Z,39.38
2019-05-03T04:05:35.845Z,39.38
2019-05-03T04:06:35.845Z,39.38
2019-05-03T04:07:36.153Z,39.38
2019-05-03T04:08:36.099Z,39.38
2019-05-03T04:09:36.563Z,39.38
2019-05-03T04:10:35.282Z,45.00
2019-05-03T04:11:35.022Z,45.00
2019-05-03T04:12:35.187Z,45.00
2019-05-03T04:13:36.111Z,50.62
2019-05-03T04:14:36.141Z,50.62
2019-05-03T04:15:37.012Z,50.62
2019-05-03T04:16:36.446Z,56.25
2019-05-03T04:17:36.098Z,56.25
2019-05-03T04:18:36.143Z,56.25
2019-05-03T04:19:36.388Z,61.88
2019-05-03T04:20:36.012Z,61.88
2019-05-03T04:21:35.890Z,61.88
2019-05-03T04:22:36.294Z,67.50
2019-05-03T04:23:35.865Z,67.50
2019-05-03T04:24:35.193Z,67.50
2019-05-03T04:25:35.612Z,67.50
2019-05-03T04:26:35.774Z,67.50
2019-05-03T04:27:36.438Z,73.12
2019-05-03T04:28:36.177Z,73.12
2019-05-03T04:29:35.676Z,78.75
2019-05-03T04:30:36.338Z,78.75
2019-05-03T04:31:36.533Z,78.75
2019-05-03T04:32:35.976Z,73.12
2019-05-03T04:33:35.860Z,78.75
2019-05-03T04:34:35.904Z,78.75
2019-05-03T04:35:36.333Z,84.38
2019-05-03T04:36:35.747Z,90.00
2019-05-03T04:37:35.980Z,95.62
2019-05-03T04:38:35.432Z,106.88
2019-05-03T04:39:35.967Z,118.12
2019-05-03T04:40:35.823Z,118.12
2019-05-03T04:41:35.686Z,118.12
2019-05-03T04:42:35.681Z,112.50
2019-05-03T04:43:35.638Z,112.50
2019-05-03T04:44:35.780Z,112.50
2019-05-03T04:45:36.755Z,112.50
2019-05-03T04:46:35.868Z,112.50
2019-05-03T04:47:35.801Z,112.50
2019-05-03T04:48:35.793Z,118.12
2019-05-03T04:49:36.256Z,112.50
2019-05-03T04:50:36.658Z,112.50
2019-05-03T04:51:34.998Z,112.50
2019-05-03T04:52:36.098Z,118.12
2019-05-03T04:53:35.796Z,118.12
2019-05-03T04:54:35.582Z,118.12
2019-05-03T04:55:36.246Z,123.75
2019-05-03T04:56:35.983Z,123.75
2019-05-03T04:57:42.072Z,123.75
2019-05-03T04:58:36.480Z,123.75
2019-05-03T04:59:35.892Z,123.75
2019-05-03T05:00:35.847Z,123.75
2019-05-03T05:01:35.287Z,118.12
2019-05-03T05:02:35.452Z,106.88
2019-05-03T05:03:36.130Z,95.62
2019-05-03T05:04:35.727Z,90.00
2019-05-03T05:05:36.267Z,84.38
2019-05-03T05:06:35.039Z,84.38
2019-05-03T05:07:35.045Z,84.38
2019-05-03T05:08:35.834Z,90.00
2019-05-03T05:09:34.895Z,90.00
2019-05-03T05:10:36.010Z,95.62
2019-05-03T05:11:35.078Z,90.00
2019-05-03T05:12:35.584Z,90.00
2019-05-03T05:13:35.564Z,95.62
2019-05-03T05:14:35.217Z,101.25
2019-05-03T05:15:35.388Z,101.25
2019-05-03T05:16:35.637Z,95.62
2019-05-03T05:17:35.474Z,95.62
2019-05-03T05:18:35.343Z,95.62
2019-05-03T05:19:35.715Z,95.62
2019-05-03T05:20:35.085Z,95.62
2019-05-03T05:21:35.474Z,101.25
2019-05-03T05:22:34.985Z,112.50
2019-05-03T05:23:35.379Z,112.50
2019-05-03T05:24:34.656Z,123.75
2019-05-03T05:25:35.449Z,123.75
2019-05-03T05:26:35.315Z,123.75
2019-05-03T05:27:34.600Z,123.75
2019-05-03T05:28:35.365Z,123.75
2019-05-03T05:29:34.624Z,123.75
2019-05-03T05:30:35.372Z,123.75
2019-05-03T05:31:35.569Z,123.75
2019-05-03T05:32:35.053Z,123.75
2019-05-03T05:33:35.310Z,123.75
2019-05-03T05:34:34.925Z,123.75
2019-05-03T05:35:35.244Z,118.12
2019-05-03T05:36:34.725Z,118.12
2019-05-03T05:37:35.215Z,112.50
2019-05-03T05:38:34.661Z,123.75
2019-05-03T05:39:35.454Z,123.75
2019-05-03T05:40:34.898Z,123.75
2019-05-03T05:41:34.749Z,123.75
2019-05-03T05:42:35.043Z,118.12
2019-05-03T05:43:35.549Z,118.12
2019-05-03T05:44:35.246Z,112.50
2019-05-03T05:45:34.828Z,106.88
2019-05-03T05:46:35.073Z,101.25
2019-05-03T05:47:34.540Z,101.25
2019-05-03T05:48:34.889Z,106.88
2019-05-03T05:49:35.069Z,118.12
2019-05-03T05:50:34.632Z,129.38
2019-05-03T05:51:35.199Z,123.75
2019-05-03T05:52:34.618Z,118.12
2019-05-03T05:53:33.330Z,135.00
2019-05-03T05:54:35.115Z,135.00
2019-05-03T05:55:34.428Z,135.00
2019-05-03T05:56:34.847Z,146.25
2019-05-03T05:57:34.663Z,135.00
2019-05-03T05:58:34.784Z,112.50
2019-05-03T05:59:35.023Z,151.88
2019-05-03T06:00:33.256Z,151.88
2019-05-03T06:01:35.212Z,151.88
2019-05-03T06:02:35.924Z,151.88
2019-05-03T06:03:34.453Z,196.88
2019-05-03T06:04:34.910Z,118.12
2019-05-03T06:05:35.406Z,168.75
2019-05-03T06:06:34.847Z,196.88
2019-05-03T06:07:35.023Z,219.38
2019-05-03T06:08:33.170Z,174.38
2019-05-03T06:09:34.449Z,140.62
2019-05-03T06:10:34.789Z,135.00
2019-05-03T06:11:34.723Z,146.25
2019-05-03T06:12:35.231Z,135.00
2019-05-03T06:13:34.428Z,140.62
2019-05-03T06:14:34.676Z,157.50
2019-05-03T06:15:34.484Z,168.75
2019-05-03T06:16:34.798Z,146.25
2019-05-03T06:17:34.802Z,146.25
2019-05-03T06:18:35.170Z,135.00
2019-05-03T06:19:34.543Z,185.62
2019-05-03T06:20:34.831Z,202.50
2019-05-03T06:21:33.038Z,196.88
2019-05-03T06:22:34.582Z,168.75
2019-05-03T06:23:34.707Z,202.50
2019-05-03T06:24:34.830Z,174.38
2019-05-03T06:25:35.222Z,174.38
2019-05-03T06:26:34.698Z,185.62
2019-05-03T06:27:34.651Z,196.88
2019-05-03T06:28:35.102Z,219.38
2019-05-03T06:29:35.075Z,225.00
2019-05-03T06:30:35.015Z,281.25
2019-05-03T06:31:34.410Z,270.00
2019-05-03T06:32:34.551Z,208.12
2019-05-03T06:33:34.672Z,219.38
2019-05-03T06:34:32.906Z,281.25
2019-05-03T06:35:34.594Z,270.00
2019-05-03T06:36:32.857Z,326.25
2019-05-03T06:37:32.930Z,326.25
2019-05-03T06:38:34.405Z,230.62
2019-05-03T06:39:35.114Z,219.38
2019-05-03T06:40:32.870Z,286.88
2019-05-03T06:41:32.824Z,219.38
2019-05-03T06:42:32.792Z,258.75
2019-05-03T06:43:34.667Z,236.25
2019-05-03T06:44:34.809Z,286.88
2019-05-03T06:45:32.781Z,376.88
2019-05-03T06:46:35.450Z,354.38
2019-05-03T06:47:34.723Z,303.75
2019-05-03T06:48:32.727Z,416.25
2019-05-03T06:49:34.464Z,303.75
2019-05-03T06:50:34.664Z,241.88
2019-05-03T06:51:32.709Z,253.12
2019-05-03T06:52:32.695Z,241.88
2019-05-03T06:53:34.552Z,191.25
2019-05-03T06:54:34.679Z,168.75
2019-05-03T06:55:34.932Z,208.12
2019-05-03T06:56:32.650Z,196.88
2019-05-03T06:57:32.640Z,241.88
2019-05-03T06:58:35.802Z,253.12
2019-05-03T06:59:32.599Z,258.75
2019-05-03T07:00:32.610Z,230.62
2019-05-03T07:01:34.386Z,376.88
2019-05-03T07:02:32.571Z,461.25
2019-05-03T07:03:32.566Z,388.12
2019-05-03T07:04:34.595Z,320.62
2019-05-03T07:05:32.558Z,292.50
2019-05-03T07:06:37.326Z,354.38
2019-05-03T07:07:35.317Z,303.75
2019-05-03T07:08:34.348Z,264.38
2019-05-03T07:09:32.493Z,343.12
2019-05-03T07:10:32.546Z,393.75
2019-05-03T07:11:34.717Z,315.00
2019-05-03T07:12:32.478Z,219.38
2019-05-03T07:13:34.431Z,208.12
2019-05-03T07:14:32.442Z,213.75
2019-05-03T07:15:32.447Z,225.00
2019-05-03T07:16:32.413Z,230.62
2019-05-03T07:17:32.404Z,191.25
2019-05-03T07:18:32.410Z,264.38
2019-05-03T07:19:32.387Z,236.25
2019-05-03T07:20:32.407Z,191.25
2019-05-03T07:21:32.367Z,208.12
2019-05-03T07:22:32.363Z,275.62
2019-05-03T07:23:32.338Z,258.75
2019-05-03T07:24:37.603Z,236.25
2019-05-03T07:25:34.460Z,320.62
2019-05-03T07:26:34.294Z,264.38
2019-05-03T07:27:32.305Z,275.62
2019-05-03T07:28:44.385Z,309.38
2019-05-03T07:29:33.290Z,354.38
2019-05-03T07:30:35.132Z,399.38
2019-05-03T07:31:32.281Z,421.88
2019-05-03T07:32:32.255Z,382.50
2019-05-03T07:33:32.235Z,466.88
2019-05-03T07:34:32.222Z,393.75
2019-05-03T07:35:32.237Z,315.00
2019-05-03T07:36:32.198Z,320.62
2019-05-03T07:37:32.190Z,281.25
2019-05-03T07:38:32.180Z,241.88
2019-05-03T07:39:32.223Z,185.62
2019-05-03T07:40:32.199Z,225.00
2019-05-03T07:41:32.182Z,219.38
2019-05-03T07:42:32.137Z,219.38
2019-05-03T07:43:32.117Z,202.50
2019-05-03T07:44:32.113Z,247.50
2019-05-03T07:45:32.097Z,270.00
2019-05-03T07:46:32.104Z,292.50
2019-05-03T07:47:32.080Z,376.88
2019-05-03T07:48:32.075Z,371.25
2019-05-03T07:49:32.066Z,303.75
2019-05-03T07:50:33.279Z,348.75
2019-05-03T07:51:32.053Z,247.50
2019-05-03T07:52:32.034Z,202.50
2019-05-03T07:53:32.039Z,225.00
2019-05-03T07:54:32.071Z,331.88
2019-05-03T07:55:31.998Z,343.12
2019-05-03T07:56:32.005Z,337.50
2019-05-03T07:57:31.966Z,399.38
2019-05-03T07:58:31.962Z,298.12
2019-05-03T07:59:31.986Z,315.00
2019-05-03T08:00:31.951Z,264.38
2019-05-03T08:01:32.008Z,286.88
2019-05-03T08:02:31.910Z,286.88
2019-05-03T08:03:31.910Z,320.62
2019-05-03T08:04:31.896Z,455.62
2019-05-03T08:05:31.892Z,483.75
2019-05-03T08:06:31.915Z,433.12
2019-05-03T08:07:31.887Z,309.38
2019-05-03T08:08:31.852Z,219.38
2019-05-03T08:09:31.846Z,253.12
2019-05-03T08:10:31.854Z,292.50
2019-05-03T08:11:31.840Z,270.00
2019-05-03T08:12:31.814Z,343.12
2019-05-03T08:13:31.798Z,427.50
2019-05-03T08:14:31.784Z,433.12
2019-05-03T08:15:31.777Z,427.50
2019-05-03T08:16:31.793Z,382.50
2019-05-03T08:17:31.797Z,253.12
2019-05-03T08:18:31.737Z,219.38
2019-05-03T08:19:31.735Z,174.38
2019-05-03T08:20:31.721Z,185.62
2019-05-03T08:21:31.740Z,202.50
2019-05-03T08:22:31.699Z,337.50
2019-05-03T08:23:31.709Z,331.88
2019-05-03T08:24:31.677Z,315.00
2019-05-03T08:25:31.663Z,309.38
2019-05-03T08:26:31.670Z,388.12
2019-05-03T08:27:31.640Z,450.00
2019-05-03T08:28:31.743Z,433.12
2019-05-03T08:29:31.621Z,472.50
2019-05-03T08:30:31.608Z,466.88
2019-05-03T08:31:31.612Z,500.62
2019-05-03T08:32:31.596Z,450.00
2019-05-03T08:33:31.579Z,416.25
2019-05-03T08:34:31.598Z,365.62
2019-05-03T08:35:31.556Z,360.00
2019-05-03T08:36:31.563Z,331.88
2019-05-03T08:37:31.533Z,331.88
2019-05-03T08:38:31.524Z,354.38
2019-05-03T08:39:31.513Z,326.25
2019-05-03T08:40:31.505Z,292.50
2019-05-03T08:41:31.508Z,264.38
2019-05-03T08:42:31.489Z,286.88
2019-05-03T08:43:31.469Z,281.25
2019-05-03T08:44:31.463Z,343.12
2019-05-03T08:45:31.451Z,444.38
2019-05-03T08:46:31.840Z,500.62
2019-05-03T08:47:31.428Z,495.00
2019-05-03T08:48:31.415Z,444.38
2019-05-03T08:49:31.406Z,444.38
2019-05-03T08:50:31.394Z,376.88
2019-05-03T08:51:31.403Z,371.25
2019-05-03T08:52:31.372Z,337.50
2019-05-03T08:53:31.365Z,309.38
2019-05-03T08:54:31.352Z,410.62
2019-05-03T08:55:31.465Z,421.88
2019-05-03T08:56:31.389Z,511.88
2019-05-03T08:57:31.371Z,483.75
2019-05-03T08:58:31.308Z,444.38
2019-05-03T08:59:32.743Z,371.25
2019-05-03T09:00:31.283Z,326.25
2019-05-03T09:01:31.342Z,371.25
2019-05-03T09:02:31.265Z,365.62
2019-05-03T09:03:31.272Z,466.88
2019-05-03T09:04:37.483Z,427.50
2019-05-03T09:05:32.244Z,376.88
2019-05-03T09:06:31.255Z,348.75
2019-05-03T09:07:31.208Z,354.38
2019-05-03T09:08:31.204Z,354.38
2019-05-03T09:09:31.218Z,292.50
2019-05-03T09:10:31.214Z,320.62
2019-05-03T09:11:34.363Z,433.12
2019-05-03T09:12:32.152Z,551.25
2019-05-03T09:13:31.136Z,472.50
2019-05-03T09:14:41.450Z,528.75
2019-05-03T09:15:32.144Z,573.75
2019-05-03T09:16:31.140Z,489.38
2019-05-03T09:17:31.134Z,511.88
2019-05-03T09:18:31.089Z,433.12
2019-05-03T09:19:31.096Z,348.75
2019-05-03T09:20:32.396Z,421.88
2019-05-03T09:21:31.054Z,382.50
2019-05-03T09:22:31.064Z,258.75
2019-05-03T09:23:31.038Z,219.38
2019-05-03T09:24:31.024Z,247.50
2019-05-03T09:25:31.021Z,315.00
2019-05-03T09:26:31.030Z,360.00
2019-05-03T09:27:30.998Z,421.88
2019-05-03T09:28:30.974Z,500.62
2019-05-03T09:29:41.015Z,635.62
2019-05-03T09:30:31.980Z,680.62
2019-05-03T09:31:30.972Z,545.62
2019-05-03T09:32:30.970Z,427.50
2019-05-03T09:33:30.928Z,376.88
2019-05-03T09:34:30.912Z,388.12
2019-05-03T09:35:35.267Z,388.12
2019-05-03T09:36:30.893Z,393.75
2019-05-03T09:37:30.968Z,433.12
2019-05-03T09:38:30.873Z,506.25
2019-05-03T09:39:30.857Z,540.00
2019-05-03T09:40:30.859Z,579.38
2019-05-03T09:41:30.838Z,517.50
2019-05-03T09:42:30.946Z,444.38
2019-05-03T09:43:30.824Z,399.38
2019-05-03T09:44:30.800Z,388.12
2019-05-03T09:45:30.795Z,483.75
2019-05-03T09:46:30.797Z,540.00
2019-05-03T09:47:30.801Z,669.38
2019-05-03T09:48:30.770Z,624.38
2019-05-03T09:49:30.750Z,517.50
2019-05-03T09:50:30.745Z,382.50
2019-05-03T09:51:30.734Z,303.75
2019-05-03T09:52:30.788Z,270.00
2019-05-03T09:53:30.709Z,275.62
2019-05-03T09:54:30.723Z,303.75
2019-05-03T09:55:30.680Z,365.62
2019-05-03T09:56:30.677Z,393.75
2019-05-03T09:57:30.762Z,461.25
2019-05-03T09:58:30.648Z,517.50
2019-05-03T09:59:30.651Z,511.88
2019-05-03T10:00:30.628Z,483.75
2019-05-03T10:01:30.645Z,613.12
2019-05-03T10:02:30.623Z,624.38
2019-05-03T10:03:30.603Z,697.50
2019-05-03T10:04:30.609Z,691.88
2019-05-03T10:05:30.578Z,568.12
2019-05-03T10:06:30.602Z,579.38
2019-05-03T10:07:30.598Z,641.25
2019-05-03T10:08:30.542Z,635.62
2019-05-03T10:09:30.563Z,630.00
2019-05-03T10:10:30.534Z,511.88
2019-05-03T10:11:30.509Z,455.62
2019-05-03T10:12:30.513Z,500.62
2019-05-03T10:13:30.488Z,551.25
2019-05-03T10:14:30.483Z,601.88
2019-05-03T10:15:30.469Z,652.50
2019-05-03T10:16:30.471Z,652.50
2019-05-03T10:17:30.464Z,562.50
2019-05-03T10:18:30.441Z,534.38
2019-05-03T10:19:39.640Z,613.12
2019-05-03T10:20:31.412Z,669.38
2019-05-03T10:21:30.402Z,697.50
2019-05-03T10:22:30.414Z,742.50
2019-05-03T10:23:30.382Z,793.12
2019-05-03T10:24:30.369Z,781.88
2019-05-03T10:25:30.356Z,714.38
2019-05-03T10:26:30.345Z,725.62
2019-05-03T10:27:30.356Z,736.88
2019-05-03T10:28:30.335Z,736.88
2019-05-03T10:29:30.311Z,753.75
2019-05-03T10:30:30.303Z,691.88
2019-05-03T10:31:30.296Z,658.12
2019-05-03T10:32:30.299Z,579.38
2019-05-03T10:33:30.274Z,573.75
2019-05-03T10:34:30.290Z,545.62
2019-05-03T10:35:30.252Z,461.25
2019-05-03T10:36:30.242Z,444.38
2019-05-03T10:37:30.251Z,466.88
2019-05-03T10:38:30.218Z,528.75
2019-05-03T10:39:30.209Z,585.00
2019-05-03T10:40:30.195Z,641.25
2019-05-03T10:41:30.209Z,630.00
2019-05-03T10:42:30.198Z,691.88
2019-05-03T10:43:30.156Z,725.62
2019-05-03T10:44:30.148Z,703.12
2019-05-03T10:45:30.157Z,703.12
2019-05-03T10:46:30.128Z,703.12
2019-05-03T10:47:30.132Z,697.50
2019-05-03T10:48:30.196Z,703.12
2019-05-03T10:49:30.098Z,714.38
2019-05-03T10:50:30.098Z,742.50
2019-05-03T10:51:30.070Z,776.25
2019-05-03T10:52:30.058Z,821.25
2019-05-03T10:53:30.070Z,877.50
2019-05-03T10:54:30.034Z,905.62
2019-05-03T10:55:30.034Z,720.00
2019-05-03T10:56:30.024Z,736.88
2019-05-03T10:57:30.020Z,691.88
2019-05-03T10:58:30.061Z,495.00
2019-05-03T10:59:29.984Z,489.38
2019-05-03T11:00:52.329Z,489.38
2019-05-03T11:01:30.963Z,517.50
2019-05-03T11:02:29.984Z,601.88
2019-05-03T11:03:29.954Z,770.62
2019-05-03T11:04:29.946Z,815.62
2019-05-03T11:05:29.950Z,849.38
2019-05-03T11:06:29.904Z,855.00
2019-05-03T11:07:29.921Z,1400.62
2019-05-03T11:08:30.176Z,590.62
2019-05-03T11:09:29.877Z,585.00
2019-05-03T11:10:30.135Z,939.38
2019-05-03T11:11:29.851Z,2767.50
2019-05-03T11:12:29.869Z,2705.62
2019-05-03T11:13:29.858Z,2857.50
2019-05-03T11:14:29.816Z,3031.88
2019-05-03T11:15:29.810Z,2750.62
2019-05-03T11:16:29.811Z,2885.62
2019-05-03T11:17:29.814Z,3166.88
2019-05-03T11:18:29.811Z,3341.25
2019-05-03T11:19:29.842Z,3538.12
2019-05-03T11:20:32.126Z,3571.88
2019-05-03T11:21:31.140Z,3538.12
2019-05-03T11:22:29.771Z,3487.50
2019-05-03T11:23:29.747Z,3650.62
2019-05-03T11:24:29.721Z,3616.88
2019-05-03T11:25:29.734Z,1147.50
2019-05-03T11:26:29.756Z,3330.00
2019-05-03T11:27:29.712Z,675.00
2019-05-03T11:28:29.847Z,798.75
2019-05-03T11:29:29.667Z,1299.38
2019-05-03T11:30:29.658Z,900.00
2019-05-03T11:31:29.736Z,810.00
2019-05-03T11:32:29.628Z,978.75
2019-05-03T11:33:29.623Z,900.00
2019-05-03T11:34:29.663Z,866.25
2019-05-03T11:35:29.603Z,916.88
2019-05-03T11:36:31.756Z,990.00
2019-05-03T11:37:29.581Z,1440.00
2019-05-03T11:38:29.942Z,1822.50
2019-05-03T11:39:29.578Z,1057.50
2019-05-03T11:40:29.545Z,911.25
2019-05-03T11:41:32.766Z,945.00
2019-05-03T11:42:29.522Z,1220.62
2019-05-03T11:43:30.719Z,2452.50
2019-05-03T11:44:29.519Z,2418.75
2019-05-03T11:45:29.505Z,2503.12
2019-05-03T11:46:29.476Z,2143.12
2019-05-03T11:47:29.509Z,2396.25
2019-05-03T11:48:29.481Z,2176.88
2019-05-03T11:49:29.441Z,2508.75
2019-05-03T11:50:29.442Z,3195.00
2019-05-03T11:51:29.478Z,2176.88
2019-05-03T11:52:29.456Z,1681.88
2019-05-03T11:53:29.421Z,1158.75
2019-05-03T11:54:29.413Z,1614.38
2019-05-03T11:55:29.382Z,1226.25
2019-05-03T11:56:29.383Z,1811.25
2019-05-03T11:57:29.383Z,2373.75
2019-05-03T11:58:29.392Z,1125.00
2019-05-03T11:59:29.361Z,1130.62
2019-05-03T12:00:29.336Z,1310.62
2019-05-03T12:01:29.317Z,1321.88
2019-05-03T12:02:29.353Z,1445.62
2019-05-03T12:03:29.957Z,2671.88
2019-05-03T12:04:29.292Z,1451.25
2019-05-03T12:05:29.333Z,1333.12
2019-05-03T12:06:29.263Z,1507.50
2019-05-03T12:07:38.291Z,1985.62
2019-05-03T12:08:30.271Z,2418.75
2019-05-03T12:09:29.235Z,2362.50
2019-05-03T12:10:47.023Z,3335.62
2019-05-03T12:11:30.254Z,2660.62
2019-05-03T12:12:29.562Z,3397.50
2019-05-03T12:13:29.190Z,3538.12
2019-05-03T12:14:29.182Z,3622.50
2019-05-03T12:15:32.396Z,3453.75
2019-05-03T12:17:08.681Z,3431.25
2019-05-03T12:17:30.560Z,3223.12
2019-05-03T12:18:29.301Z,2891.25
2019-05-03T12:19:31.574Z,2694.38
2019-05-03T12:20:30.638Z,2182.50
2019-05-03T12:21:30.451Z,1293.75
2019-05-03T12:22:29.599Z,978.75
2019-05-03T12:23:31.545Z,1130.62
2019-05-03T12:24:29.649Z,866.25
2019-05-03T12:25:29.771Z,686.25
2019-05-03T12:26:40.586Z,590.62
2019-05-03T12:27:30.075Z,551.25
2019-05-03T12:28:29.104Z,483.75
2019-05-03T12:29:29.027Z,478.12
2019-05-03T12:30:29.465Z,466.88
2019-05-03T12:31:36.977Z,450.00
2019-05-03T12:32:30.024Z,466.88
2019-05-03T12:33:29.403Z,483.75
2019-05-03T12:34:29.032Z,489.38
2019-05-03T12:35:28.945Z,500.62
2019-05-03T12:36:28.944Z,523.12
2019-05-03T12:37:29.094Z,511.88
2019-05-03T12:38:28.945Z,534.38
2019-05-03T12:39:30.566Z,551.25
2019-05-03T12:40:28.897Z,568.12
2019-05-03T12:41:28.912Z,585.00
2019-05-03T12:42:28.914Z,663.75
2019-05-03T12:43:28.879Z,753.75